sensor_id;sensor_type;location;lat;lon;timestamp;temperature;humidity
10386;DHT22;34307;51.332;12.334;2023-04-01T04:35:57;8.50;99.90
10386;DHT22;34307;51.332;12.334;2023-04-01T04:38:26;8.50;99.90
10386;DHT22;34307;51.332;12.334;2023-04-01T04:40:54;8.50;99.90
10386;DHT22;34307;51.332;12.334;2023-04-01T04:43:22;8.50;99.90
10386;DHT22;34307;51.332;12.334;2023-04-01T04:45:51;8.50;99.90
10386;DHT22;34307;51.332;12.334;2023-04-01T04:48:18;8.50;99.90
10386;DHT22;34307;51.332;12.334;2023-04-01T04:50:48;8.50;99.90
10386;DHT22;34307;51.332;12.334;2023-04-01T04:53:18;8.50;99.90
10386;DHT22;34307;51.332;12.334;2023-04-01T04:55:47;8.40;99.90
10386;DHT22;34307;51.332;12.334;2023-04-01T04:58:15;8.40;99.90
10386;DHT22;34307;51.332;12.334;2023-04-01T05:00:43;8.50;99.90
10386;DHT22;34307;51.332;12.334;2023-04-01T05:03:12;8.40;99.90
10386;DHT22;34307;51.332;12.334;2023-04-01T05:05:47;8.40;99.90
10386;DHT22;34307;51.332;12.334;2023-04-01T08:45:44;11.50;99.90
10386;DHT22;34307;51.332;12.334;2023-04-01T08:48:29;11.60;99.90
10386;DHT22;34307;51.332;12.334;2023-04-01T08:51:20;11.60;98.60
10386;DHT22;34307;51.332;12.334;2023-04-01T09:08:43;11.40;96.60
10386;DHT22;34307;51.332;12.334;2023-04-01T09:11:24;11.40;96.40
10386;DHT22;34307;51.332;12.334;2023-04-01T09:14:28;11.40;96.20
10386;DHT22;34307;51.332;12.334;2023-04-01T09:17:27;11.60;95.60
10386;DHT22;34307;51.332;12.334;2023-04-01T09:20:17;11.70;94.80
10386;DHT22;34307;51.332;12.334;2023-04-01T09:30:31;11.70;93.00
10386;DHT22;34307;51.332;12.334;2023-04-01T09:40:17;11.70;92.70
10386;DHT22;34307;51.332;12.334;2023-04-01T09:50:29;12.00;94.00
10386;DHT22;34307;51.332;12.334;2023-04-01T09:53:07;12.30;93.30
10386;DHT22;34307;51.332;12.334;2023-04-01T09:56:07;12.10;93.00
10386;DHT22;34307;51.332;12.334;2023-04-01T10:30:50;11.90;96.70
10386;DHT22;34307;51.332;12.334;2023-04-01T10:52:05;11.80;90.00
10386;DHT22;34307;51.332;12.334;2023-04-01T10:54:45;11.80;87.60
10386;DHT22;34307;51.332;12.334;2023-04-01T10:57:38;12.00;88.20
10386;DHT22;34307;51.332;12.334;2023-04-01T11:00:45;12.10;86.60
10386;DHT22;34307;51.332;12.334;2023-04-01T11:06:56;12.30;84.10
10386;DHT22;34307;51.332;12.334;2023-04-01T11:20:28;12.70;79.60
10386;DHT22;34307;51.332;12.334;2023-04-01T11:23:22;12.50;80.50
10386;DHT22;34307;51.332;12.334;2023-04-01T11:26:08;12.50;80.70
10386;DHT22;34307;51.332;12.334;2023-04-01T11:29:07;12.50;81.60
10386;DHT22;34307;51.332;12.334;2023-04-01T11:31:47;12.50;82.90
10386;DHT22;34307;51.332;12.334;2023-04-01T11:34:43;12.90;82.60
10386;DHT22;34307;51.332;12.334;2023-04-01T11:37:27;13.10;80.70
10386;DHT22;34307;51.332;12.334;2023-04-01T11:40:08;13.20;80.50
10386;DHT22;34307;51.332;12.334;2023-04-01T11:42:43;13.10;80.50
10386;DHT22;34307;51.332;12.334;2023-04-01T11:45:22;12.90;79.30
10386;DHT22;34307;51.332;12.334;2023-04-01T11:48:11;12.70;82.00
10386;DHT22;34307;51.332;12.334;2023-04-01T11:50:58;12.70;84.10
10386;DHT22;34307;51.332;12.334;2023-04-01T11:53:41;12.30;85.80
10386;DHT22;34307;51.332;12.334;2023-04-01T11:56:26;11.90;90.00
10386;DHT22;34307;51.332;12.334;2023-04-01T11:59:09;11.70;92.90
10386;DHT22;34307;51.332;12.334;2023-04-01T12:01:48;11.50;95.10
10386;DHT22;34307;51.332;12.334;2023-04-01T12:04:37;11.50;96.90
10386;DHT22;34307;51.332;12.334;2023-04-01T12:07:15;11.40;98.20
10386;DHT22;34307;51.332;12.334;2023-04-01T12:36:02;11.40;95.20
10386;DHT22;34307;51.332;12.334;2023-04-01T12:38:43;11.50;95.50
10386;DHT22;34307;51.332;12.334;2023-04-01T12:41:23;11.70;95.80
10386;DHT22;34307;51.332;12.334;2023-04-01T12:44:12;11.80;94.80
10386;DHT22;34307;51.332;12.334;2023-04-01T12:47:19;11.90;93.90
10386;DHT22;34307;51.332;12.334;2023-04-01T12:49:56;11.80;92.60
10386;DHT22;34307;51.332;12.334;2023-04-01T12:52:42;11.80;91.60
10386;DHT22;34307;51.332;12.334;2023-04-01T13:06:00;11.70;91.60
10386;DHT22;34307;51.332;12.334;2023-04-01T13:08:41;11.60;92.50
10386;DHT22;34307;51.332;12.334;2023-04-01T13:11:18;11.60;93.00
10386;DHT22;34307;51.332;12.334;2023-04-01T13:21:18;11.70;93.40
10386;DHT22;34307;51.332;12.334;2023-04-01T13:31:36;11.60;97.50
10386;DHT22;34307;51.332;12.334;2023-04-01T13:41:33;11.40;99.90
10386;DHT22;34307;51.332;12.334;2023-04-01T14:20:51;11.10;99.90
10386;DHT22;34307;51.332;12.334;2023-04-01T14:23:38;11.20;99.90
10386;DHT22;34307;51.332;12.334;2023-04-01T14:26:19;11.30;99.90
10386;DHT22;34307;51.332;12.334;2023-04-01T14:36:35;11.20;99.90
10386;DHT22;34307;51.332;12.334;2023-04-01T14:39:21;11.40;99.90
10386;DHT22;34307;51.332;12.334;2023-04-01T14:41:59;11.40;99.90
10386;DHT22;34307;51.332;12.334;2023-04-01T14:58:00;11.50;99.90
10386;DHT22;34307;51.332;12.334;2023-04-01T15:00:46;11.40;99.90
10386;DHT22;34307;51.332;12.334;2023-04-01T15:17:03;11.40;99.90
10386;DHT22;34307;51.332;12.334;2023-04-01T15:58:52;11.40;99.90
10386;DHT22;34307;51.332;12.334;2023-04-01T16:01:30;11.30;99.90
10386;DHT22;34307;51.332;12.334;2023-04-01T16:04:17;11.30;99.90
10386;DHT22;34307;51.332;12.334;2023-04-01T16:07:03;11.30;99.90
10386;DHT22;34307;51.332;12.334;2023-04-01T17:36:45;10.10;99.90
10386;DHT22;34307;51.332;12.334;2023-04-01T17:39:26;10.00;99.90
10386;DHT22;34307;51.332;12.334;2023-04-01T17:42:05;9.90;99.90
10386;DHT22;34307;51.332;12.334;2023-04-01T17:44:56;9.90;99.90
10386;DHT22;34307;51.332;12.334;2023-04-01T17:47:37;9.80;99.90
10386;DHT22;34307;51.332;12.334;2023-04-01T17:50:18;9.80;99.90
10386;DHT22;34307;51.332;12.334;2023-04-01T17:52:59;9.80;99.90
10386;DHT22;34307;51.332;12.334;2023-04-01T17:55:46;9.80;99.90
10386;DHT22;34307;51.332;12.334;2023-04-01T17:58:18;9.80;99.90
10386;DHT22;34307;51.332;12.334;2023-04-01T18:00:54;9.80;99.90
10386;DHT22;34307;51.332;12.334;2023-04-01T18:06:19;9.80;99.90
10386;DHT22;34307;51.332;12.334;2023-04-01T18:08:57;9.70;99.90
10386;DHT22;34307;51.332;12.334;2023-04-01T18:11:39;9.70;99.90
10386;DHT22;34307;51.332;12.334;2023-04-01T18:14:31;9.70;99.90
10386;DHT22;34307;51.332;12.334;2023-04-01T18:17:20;9.70;99.90
10386;DHT22;34307;51.332;12.334;2023-04-01T18:20:02;9.60;99.90
10386;DHT22;34307;51.332;12.334;2023-04-01T18:22:39;9.70;99.90
10386;DHT22;34307;51.332;12.334;2023-04-01T18:25:19;9.60;99.90
10386;DHT22;34307;51.332;12.334;2023-04-01T18:27:51;9.60;99.90
10386;DHT22;34307;51.332;12.334;2023-04-01T18:30:25;9.50;99.90
10386;DHT22;34307;51.332;12.334;2023-04-01T18:32:58;9.50;99.90
10386;DHT22;34307;51.332;12.334;2023-04-01T18:35:44;9.50;99.90
10386;DHT22;34307;51.332;12.334;2023-04-01T18:38:13;9.40;99.90
10386;DHT22;34307;51.332;12.334;2023-04-01T18:40:50;9.40;99.90
10386;DHT22;34307;51.332;12.334;2023-04-01T18:43:30;9.30;99.90
10386;DHT22;34307;51.332;12.334;2023-04-01T18:46:09;9.30;99.90
10386;DHT22;34307;51.332;12.334;2023-04-01T18:48:51;9.30;99.90
10386;DHT22;34307;51.332;12.334;2023-04-01T18:51:22;9.20;99.90
